createdAt,value
2022-09-28T00:01:27.101Z,96175.75
2022-09-28T00:03:53.138Z,96173.72
2022-09-28T00:06:19.096Z,96167.28
2022-09-28T00:08:46.016Z,96172.22
2022-09-28T00:11:11.961Z,96169.22
2022-09-28T00:13:37.886Z,96178.06
2022-09-28T00:16:04.887Z,96175.88
2022-09-28T00:18:30.895Z,96187.22
2022-09-28T00:20:56.848Z,96184.38
2022-09-28T00:23:22.940Z,96181.28
2022-09-28T00:25:48.866Z,96167.72
2022-09-28T00:28:14.824Z,96144.00
2022-09-28T00:30:40.768Z,96149.41
2022-09-28T00:33:08.475Z,96155.00
2022-09-28T00:35:34.751Z,96157.09
2022-09-28T00:38:01.016Z,96164.88
2022-09-28T00:40:27.354Z,96171.28
2022-09-28T00:42:53.646Z,96163.50
2022-09-28T00:45:21.011Z,96158.22
2022-09-28T02:38:37.728Z,96119.25
2022-09-28T02:41:04.570Z,96122.13
2022-09-28T02:43:30.530Z,96117.94
2022-09-28T02:45:56.571Z,96121.00
2022-09-28T02:48:36.167Z,96117.72
2022-09-28T02:51:08.170Z,96117.72
2022-09-28T02:53:34.171Z,96116.03
2022-09-28T02:56:00.112Z,96111.84
2022-09-28T02:58:26.775Z,96113.25
2022-09-28T03:00:52.808Z,96122.69
2022-09-28T03:03:18.816Z,96123.84
2022-09-28T03:05:44.759Z,96122.03
2022-09-28T03:08:11.505Z,96121.00
2022-09-28T03:10:37.683Z,96130.81
2022-09-28T03:13:03.810Z,96119.94
2022-09-28T03:15:29.754Z,96122.28
2022-09-28T03:17:55.738Z,96122.03
2022-09-28T03:20:21.689Z,96117.22
2022-09-28T03:23:00.469Z,96117.25
2022-09-28T03:25:33.573Z,96100.66
2022-09-28T03:28:00.290Z,96093.69
2022-09-28T03:30:26.290Z,96095.09
2022-09-28T03:32:52.275Z,96091.44
2022-09-28T03:35:18.240Z,96099.19
2022-09-28T03:37:44.166Z,96089.84
2022-09-28T03:40:11.074Z,96090.94
2022-09-28T03:42:37.080Z,96086.97
2022-09-28T03:45:03.054Z,96089.59
2022-09-28T03:47:29.870Z,96092.72
2022-09-28T03:49:55.835Z,96093.41
2022-09-28T03:52:21.775Z,96092.09
2022-09-28T03:54:49.459Z,96093.53
2022-09-28T03:57:15.511Z,96087.75
2022-09-28T03:59:41.458Z,96093.88
2022-09-28T04:02:07.460Z,96090.03
2022-09-28T04:04:33.487Z,96084.66
2022-09-28T04:06:59.416Z,96077.22
2022-09-28T04:09:26.205Z,96076.56
2022-09-28T04:12:03.407Z,96073.56
2022-09-28T04:14:30.107Z,96070.22
2022-09-28T04:16:56.092Z,96071.66
2022-09-28T04:19:22.081Z,96065.44
2022-09-28T04:21:48.781Z,96075.91
2022-09-28T04:24:14.723Z,96074.78
2022-09-28T04:26:41.582Z,96071.94
2022-09-28T04:29:07.546Z,96063.94
2022-09-28T04:31:33.546Z,96064.53
2022-09-28T04:34:00.292Z,96069.50
2022-09-28T04:36:26.255Z,96067.44
2022-09-28T04:38:53.420Z,96076.69
2022-09-28T04:41:20.397Z,96059.50
2022-09-28T04:43:46.449Z,96064.69
2022-09-28T04:46:12.439Z,96073.09
2022-09-28T04:48:39.323Z,96070.38
2022-09-28T04:51:05.262Z,96069.94
2022-09-28T04:53:31.182Z,96061.38
2022-09-28T04:55:58.070Z,96063.91
2022-09-28T04:58:24.005Z,96078.09
2022-09-28T05:00:50.001Z,96086.94
2022-09-28T05:03:16.012Z,96088.19
2022-09-28T05:05:42.633Z,96091.19
2022-09-28T05:08:08.592Z,96089.94
2022-09-28T05:10:34.536Z,96086.81
2022-09-28T05:13:00.465Z,96092.88
2022-09-28T05:15:26.432Z,96094.53
2022-09-28T05:17:53.351Z,96097.34
2022-09-28T05:20:19.628Z,96101.72
2022-09-28T05:22:47.227Z,96090.91
2022-09-28T05:25:13.540Z,96094.44
2022-09-28T05:27:39.791Z,96089.53
2022-09-28T05:30:05.868Z,96087.81
2022-09-28T05:32:32.120Z,96089.28
2022-09-28T07:37:25.298Z,95964.53
2022-09-28T07:39:51.236Z,95979.19
2022-09-28T07:42:18.083Z,95981.53
2022-09-28T07:44:44.012Z,95974.22
2022-09-28T07:47:09.979Z,95974.91
2022-09-28T07:49:35.924Z,95972.81
2022-09-28T07:52:01.909Z,95970.19
2022-09-28T07:54:27.889Z,95972.91
2022-09-28T07:56:54.542Z,95971.00
2022-09-28T07:59:20.556Z,95966.00
2022-09-28T08:01:46.567Z,95963.88
2022-09-28T08:04:12.550Z,95965.88
2022-09-28T08:06:38.519Z,95971.22
2022-09-28T08:09:04.454Z,95961.28
2022-09-28T08:11:31.352Z,95970.97
2022-09-28T08:13:57.295Z,95959.94
2022-09-28T08:16:23.344Z,95961.66
2022-09-28T08:18:50.162Z,95961.91
2022-09-28T08:21:16.159Z,95971.38
2022-09-28T08:23:42.999Z,95967.19
2022-09-28T08:26:13.305Z,95959.91
2022-09-28T08:28:41.283Z,95968.69
2022-09-28T08:31:07.964Z,95960.47
2022-09-28T08:33:33.977Z,95966.25
2022-09-28T08:35:59.968Z,95961.00
2022-09-28T08:38:26.654Z,95959.88
2022-09-28T08:40:52.637Z,95957.63
2022-09-28T08:43:18.586Z,95958.88
2022-09-28T08:45:45.504Z,95953.81
2022-09-28T08:48:11.739Z,95944.41
2022-09-28T08:50:38.439Z,95927.41
2022-09-28T08:53:04.460Z,95921.81
2022-09-28T08:55:30.415Z,95926.25
2022-09-28T08:57:57.128Z,95917.97
2022-09-28T09:00:23.333Z,95926.84
2022-09-28T09:02:49.328Z,95929.38
2022-09-28T09:05:16.025Z,95927.03
2022-09-28T09:07:42.025Z,95931.22
2022-09-28T09:10:08.024Z,95932.94
2022-09-28T09:12:34.611Z,95930.75
2022-09-28T09:15:00.584Z,95932.31
2022-09-28T09:17:27.496Z,95933.88
2022-09-28T09:19:53.476Z,95926.91
2022-09-28T09:22:19.512Z,95916.88
2022-09-28T09:24:46.210Z,95916.44
2022-09-28T09:27:12.180Z,95914.31
2022-09-28T09:29:38.161Z,95919.09
2022-09-28T09:32:04.968Z,95921.13
2022-09-28T09:34:30.922Z,95914.47
2022-09-28T09:36:56.884Z,95922.34
2022-09-28T09:39:23.615Z,95927.13
2022-09-28T09:41:49.641Z,95921.19
2022-09-28T09:44:15.640Z,95921.00
2022-09-28T09:46:42.406Z,95918.91
2022-09-28T09:49:08.400Z,95923.47
2022-09-28T09:51:34.332Z,95920.53
2022-09-28T09:54:01.116Z,95918.16
2022-09-28T09:56:27.056Z,95920.88
2022-09-28T09:58:53.031Z,95929.03
2022-09-28T10:01:18.990Z,95916.50
2022-09-28T10:03:45.943Z,95910.66
2022-09-28T10:06:11.914Z,95904.03
2022-09-28T10:08:37.851Z,95904.50
2022-09-28T10:11:03.815Z,95903.38
2022-09-28T10:13:30.758Z,95912.28
2022-09-28T10:15:57.126Z,95906.84
2022-09-28T10:18:23.406Z,95911.69
2022-09-28T10:20:51.124Z,95904.25
2022-09-28T10:23:17.390Z,95908.41
2022-09-28T10:25:44.897Z,95903.50
2022-09-28T10:28:11.240Z,95904.00
2022-09-28T10:30:37.589Z,95907.41
2022-09-28T12:34:50.280Z,95792.03
2022-09-28T12:37:16.264Z,95788.50
2022-09-28T12:39:57.153Z,95794.41
2022-09-28T12:42:24.415Z,95783.88
2022-09-28T12:44:51.583Z,95779.13
2022-09-28T12:47:18.868Z,95778.94
2022-09-28T12:50:36.552Z,95777.59
2022-09-28T12:52:30.927Z,95777.44
2022-09-28T12:54:57.013Z,95783.03
2022-09-28T12:57:23.063Z,95769.69
2022-09-28T12:59:49.087Z,95774.28
2022-09-28T13:02:15.373Z,95769.97
2022-09-28T13:04:41.449Z,95772.25
2022-09-28T13:07:07.453Z,95774.59
2022-09-28T13:09:33.607Z,95765.72
2022-09-28T13:11:59.720Z,95771.22
2022-09-28T13:14:25.811Z,95769.75
2022-09-28T13:16:54.376Z,95774.38
2022-09-28T13:19:23.926Z,95770.97
2022-09-28T13:21:49.913Z,95775.34
2022-09-28T13:24:31.637Z,95768.28
2022-09-28T13:26:58.945Z,95776.41
2022-09-28T13:29:25.307Z,95773.78
2022-09-28T13:31:51.950Z,95775.38
2022-09-28T13:34:18.043Z,95771.72
2022-09-28T13:36:47.987Z,95775.69
2022-09-28T13:39:15.217Z,95766.22
2022-09-28T13:41:41.932Z,95769.31
2022-09-28T13:44:07.940Z,95763.81
2022-09-28T13:46:33.931Z,95756.22
2022-09-28T13:49:00.414Z,95753.75
2022-09-28T13:51:26.418Z,95752.59
2022-09-28T13:53:52.916Z,95747.84
2022-09-28T13:56:19.007Z,95750.56
2022-09-28T13:58:44.942Z,95756.06
2022-09-28T14:01:11.012Z,95755.38
2022-09-28T14:03:37.068Z,95751.81
2022-09-28T14:06:03.206Z,95757.34
2022-09-28T14:08:30.154Z,95758.47
2022-09-28T14:10:56.092Z,95755.75
2022-09-28T14:13:22.092Z,95755.84
2022-09-28T14:15:48.111Z,95756.38
2022-09-28T14:18:14.135Z,95752.00
2022-09-28T14:20:41.012Z,95756.25
2022-09-28T14:23:06.971Z,95756.22
2022-09-28T14:25:32.905Z,95753.75
2022-09-28T14:27:58.901Z,95742.69
2022-09-28T14:30:24.894Z,95748.97
2022-09-28T14:32:51.426Z,95745.72
2022-09-28T14:35:18.907Z,95753.06
2022-09-28T14:37:45.942Z,95750.41
2022-09-28T14:40:11.934Z,95760.94
2022-09-28T14:45:22.218Z,95753.44
2022-09-28T14:47:49.132Z,95754.84
2022-09-28T14:50:15.139Z,95748.50
2022-09-28T14:52:41.172Z,95743.72
2022-09-28T14:55:07.899Z,95751.09
2022-09-28T14:57:33.890Z,95754.25
2022-09-28T14:59:59.824Z,95752.53
2022-09-28T15:02:25.791Z,95749.56
2022-09-28T15:04:52.675Z,95749.44
2022-09-28T15:07:18.695Z,95747.56
2022-09-28T15:09:44.981Z,95755.75
2022-09-28T15:12:12.661Z,95753.41
2022-09-28T15:14:39.915Z,95752.88
2022-09-28T15:17:06.333Z,95752.22
2022-09-28T15:19:32.628Z,95750.47
2022-09-28T15:21:58.981Z,95760.53
2022-09-28T15:24:25.105Z,95757.19
2022-09-28T17:29:25.178Z,95779.66
2022-09-28T17:31:51.885Z,95774.47
2022-09-28T17:34:18.026Z,95769.69
2022-09-28T17:36:44.042Z,95779.94
2022-09-28T17:39:10.184Z,95776.78
2022-09-28T17:41:36.161Z,95771.41
2022-09-28T17:44:02.120Z,95776.41
2022-09-28T17:46:28.206Z,95776.94
2022-09-28T17:48:54.890Z,95781.81
2022-09-28T17:51:21.080Z,95793.38
2022-09-28T17:53:47.038Z,95788.34
2022-09-28T17:56:13.755Z,95791.81
2022-09-28T17:58:39.723Z,95787.16
2022-09-28T18:01:05.793Z,95779.72
2022-09-28T18:03:31.787Z,95791.16
2022-09-28T18:05:57.722Z,95792.69
2022-09-28T18:08:23.679Z,95792.69
2022-09-28T18:10:49.644Z,95790.28
2022-09-28T18:13:15.580Z,95800.59
2022-09-28T18:15:42.388Z,95790.00
2022-09-28T18:18:08.458Z,95796.69
2022-09-28T18:20:34.398Z,95794.91
2022-09-28T18:23:01.318Z,95792.75
2022-09-28T18:25:27.284Z,95791.97
2022-09-28T18:27:53.288Z,95791.16
2022-09-28T18:30:19.912Z,95778.41
2022-09-28T18:32:45.880Z,95781.91
2022-09-28T18:35:11.849Z,95796.78
2022-09-28T18:37:37.823Z,95792.44
2022-09-28T18:40:03.809Z,95790.50
2022-09-28T18:42:29.777Z,95783.63
2022-09-28T18:44:55.786Z,95786.81
2022-09-28T18:47:21.745Z,95784.56
2022-09-28T18:49:47.726Z,95781.53
2022-09-28T18:52:13.702Z,95788.72
2022-09-28T18:54:39.717Z,95777.28
2022-09-28T18:57:05.649Z,95778.09
2022-09-28T18:59:32.193Z,95779.41
2022-09-28T19:01:58.316Z,95787.63
2022-09-28T19:04:24.340Z,95781.25
2022-09-28T19:06:51.101Z,95781.19
2022-09-28T19:09:17.147Z,95783.78
2022-09-28T19:11:43.127Z,95793.88
2022-09-28T19:14:09.085Z,95790.97
2022-09-28T19:16:35.061Z,95793.63
2022-09-28T19:19:01.678Z,95797.66
2022-09-28T19:21:27.626Z,95800.66
2022-09-28T19:23:53.582Z,95809.69
2022-09-28T19:26:19.535Z,95807.91
2022-09-28T19:28:45.502Z,95811.34
2022-09-28T19:31:11.491Z,95809.00
2022-09-28T19:33:38.459Z,95803.16
2022-09-28T19:36:04.425Z,95801.88
2022-09-28T19:38:30.409Z,95804.78
2022-09-28T19:40:56.387Z,95803.69
2022-09-28T19:43:23.249Z,95796.28
2022-09-28T19:45:49.266Z,95802.44
2022-09-28T19:48:15.277Z,95798.94
2022-09-28T19:50:44.268Z,95807.41
2022-09-28T19:53:10.510Z,95807.41
2022-09-28T19:55:36.535Z,95816.47
2022-09-28T19:58:03.206Z,95819.13
2022-09-28T20:00:29.211Z,95820.50
2022-09-28T20:02:55.186Z,95824.25
2022-09-28T20:05:22.144Z,95819.19
2022-09-28T20:07:48.370Z,95818.09
2022-09-28T20:10:14.775Z,95816.47
2022-09-28T20:12:41.932Z,95815.66
2022-09-28T20:15:08.169Z,95814.41
2022-09-28T20:17:34.534Z,95814.88
2022-09-28T20:20:01.775Z,95813.81
2022-09-28T22:27:11.526Z,95829.34
2022-09-28T22:29:37.537Z,95831.22
2022-09-28T22:32:04.418Z,95823.47
2022-09-28T22:34:30.385Z,95814.47
2022-09-28T22:36:56.341Z,95822.19
2022-09-28T22:39:22.900Z,95821.38
2022-09-28T22:41:48.882Z,95828.00
2022-09-28T22:44:14.974Z,95828.53
2022-09-28T22:46:41.022Z,95835.44
2022-09-28T22:49:08.027Z,95833.31
2022-09-28T22:51:33.986Z,95842.03
2022-09-28T22:53:59.939Z,95842.03
2022-09-28T22:56:25.867Z,95842.56
2022-09-28T22:58:52.832Z,95838.56
2022-09-28T23:01:18.835Z,95841.53
2022-09-28T23:03:44.770Z,95835.69
2022-09-28T23:06:10.744Z,95836.72
2022-09-28T23:08:36.673Z,95841.25
2022-09-28T23:11:03.369Z,95839.44
2022-09-28T23:13:29.376Z,95831.44
2022-09-28T23:15:55.760Z,95823.72
2022-09-28T23:18:21.762Z,95830.91
2022-09-28T23:20:47.720Z,95830.59
2022-09-28T23:23:13.654Z,95830.06
2022-09-28T23:25:40.467Z,95828.00
2022-09-28T23:28:07.056Z,95825.06
2022-09-28T23:30:33.025Z,95822.69
2022-09-28T23:32:59.020Z,95822.09
2022-09-28T23:35:24.988Z,95827.16
2022-09-28T23:37:51.836Z,95821.28
2022-09-28T23:40:17.805Z,95815.44
2022-09-28T23:42:43.788Z,95821.31
2022-09-28T23:45:10.557Z,95825.88
2022-09-28T23:47:36.549Z,95826.94
2022-09-28T23:50:02.552Z,95829.88
2022-09-28T23:52:28.551Z,95810.69
2022-09-28T23:54:54.956Z,95825.03
2022-09-28T23:57:21.585Z,95819.19
2022-09-28T23:59:47.524Z,95808.00
